sensor_id;sensor_type;location;lat;lon;timestamp;temperature;humidity
25963;DHT22;13760;52.588;13.406;2022-12-24T00:01:00;5.40;99.90
25963;DHT22;13760;52.588;13.406;2022-12-24T00:03:26;5.40;99.90
25963;DHT22;13760;52.588;13.406;2022-12-24T00:05:51;5.40;99.90
25963;DHT22;13760;52.588;13.406;2022-12-24T00:08:17;5.40;99.90
25963;DHT22;13760;52.588;13.406;2022-12-24T00:10:42;5.40;99.90
25963;DHT22;13760;52.588;13.406;2022-12-24T00:13:08;5.40;99.90
25963;DHT22;13760;52.588;13.406;2022-12-24T00:15:34;5.40;99.90
25963;DHT22;13760;52.588;13.406;2022-12-24T00:17:59;5.40;99.90
25963;DHT22;13760;52.588;13.406;2022-12-24T00:20:25;5.40;99.90
25963;DHT22;13760;52.588;13.406;2022-12-24T00:22:50;5.40;99.90
25963;DHT22;13760;52.588;13.406;2022-12-24T00:25:16;5.40;99.90
25963;DHT22;13760;52.588;13.406;2022-12-24T00:27:41;5.40;99.90
25963;DHT22;13760;52.588;13.406;2022-12-24T00:30:07;5.30;99.90
25963;DHT22;13760;52.588;13.406;2022-12-24T00:32:33;5.40;99.90
25963;DHT22;13760;52.588;13.406;2022-12-24T00:34:58;5.40;99.90
25963;DHT22;13760;52.588;13.406;2022-12-24T00:37:24;5.30;99.90
25963;DHT22;13760;52.588;13.406;2022-12-24T00:39:49;5.40;99.90
25963;DHT22;13760;52.588;13.406;2022-12-24T00:42:15;5.30;99.90
25963;DHT22;13760;52.588;13.406;2022-12-24T00:44:40;5.40;99.90
25963;DHT22;13760;52.588;13.406;2022-12-24T00:47:06;5.30;99.90
25963;DHT22;13760;52.588;13.406;2022-12-24T00:49:31;5.30;99.90
25963;DHT22;13760;52.588;13.406;2022-12-24T00:51:57;5.30;99.90
25963;DHT22;13760;52.588;13.406;2022-12-24T00:54:22;5.40;99.90
25963;DHT22;13760;52.588;13.406;2022-12-24T00:56:48;5.30;99.90
25963;DHT22;13760;52.588;13.406;2022-12-24T00:59:13;5.30;99.90
25963;DHT22;13760;52.588;13.406;2022-12-24T01:01:39;5.30;99.90
25963;DHT22;13760;52.588;13.406;2022-12-24T01:04:04;5.40;99.90
25963;DHT22;13760;52.588;13.406;2022-12-24T01:06:49;5.30;99.90
25963;DHT22;13760;52.588;13.406;2022-12-24T01:09:14;5.30;99.90
25963;DHT22;13760;52.588;13.406;2022-12-24T01:11:40;5.30;99.90
25963;DHT22;13760;52.588;13.406;2022-12-24T01:14:05;5.30;99.90
25963;DHT22;13760;52.588;13.406;2022-12-24T01:16:31;5.30;99.90
25963;DHT22;13760;52.588;13.406;2022-12-24T01:18:56;5.30;99.90
25963;DHT22;13760;52.588;13.406;2022-12-24T01:21:22;5.30;99.90
25963;DHT22;13760;52.588;13.406;2022-12-24T01:23:48;5.30;99.90
25963;DHT22;13760;52.588;13.406;2022-12-24T01:26:13;5.30;99.90
25963;DHT22;13760;52.588;13.406;2022-12-24T01:28:39;5.30;99.90
25963;DHT22;13760;52.588;13.406;2022-12-24T01:31:14;5.30;99.90
25963;DHT22;13760;52.588;13.406;2022-12-24T01:33:40;5.30;99.90
25963;DHT22;13760;52.588;13.406;2022-12-24T01:36:06;5.30;99.90
25963;DHT22;13760;52.588;13.406;2022-12-24T01:38:32;5.20;99.90
25963;DHT22;13760;52.588;13.406;2022-12-24T01:40:57;5.30;99.90
25963;DHT22;13760;52.588;13.406;2022-12-24T01:43:42;5.20;99.90
25963;DHT22;13760;52.588;13.406;2022-12-24T01:46:25;5.20;99.90
25963;DHT22;13760;52.588;13.406;2022-12-24T01:48:55;5.20;99.90
25963;DHT22;13760;52.588;13.406;2022-12-24T01:54:03;5.20;99.90
25963;DHT22;13760;52.588;13.406;2022-12-24T01:56:30;5.20;99.90
25963;DHT22;13760;52.588;13.406;2022-12-24T01:59:01;5.20;99.90
25963;DHT22;13760;52.588;13.406;2022-12-24T02:01:27;5.20;99.90
25963;DHT22;13760;52.588;13.406;2022-12-24T02:03:53;5.20;99.90
25963;DHT22;13760;52.588;13.406;2022-12-24T02:06:19;5.20;99.90
25963;DHT22;13760;52.588;13.406;2022-12-24T02:08:46;5.20;99.90
25963;DHT22;13760;52.588;13.406;2022-12-24T02:11:20;5.20;99.90
25963;DHT22;13760;52.588;13.406;2022-12-24T02:13:57;5.20;99.90
25963;DHT22;13760;52.588;13.406;2022-12-24T02:19:03;5.20;99.90
25963;DHT22;13760;52.588;13.406;2022-12-24T02:22:05;5.20;99.90
25963;DHT22;13760;52.588;13.406;2022-12-24T02:25:03;5.20;99.90
25963;DHT22;13760;52.588;13.406;2022-12-24T02:28:00;5.10;99.90
25963;DHT22;13760;52.588;13.406;2022-12-24T02:30:35;5.20;99.90
25963;DHT22;13760;52.588;13.406;2022-12-24T02:38:19;5.20;99.90
25963;DHT22;13760;52.588;13.406;2022-12-24T02:40:52;5.10;99.90
25963;DHT22;13760;52.588;13.406;2022-12-24T02:43:23;5.20;99.90
25963;DHT22;13760;52.588;13.406;2022-12-24T02:45:58;5.20;99.90
25963;DHT22;13760;52.588;13.406;2022-12-24T02:48:27;5.20;99.90
25963;DHT22;13760;52.588;13.406;2022-12-24T02:50:59;5.20;99.90
25963;DHT22;13760;52.588;13.406;2022-12-24T02:53:25;5.20;99.90
25963;DHT22;13760;52.588;13.406;2022-12-24T02:56:30;5.10;99.90
25963;DHT22;13760;52.588;13.406;2022-12-24T02:59:19;5.20;99.90
25963;DHT22;13760;52.588;13.406;2022-12-24T03:07:31;5.10;99.90
25963;DHT22;13760;52.588;13.406;2022-12-24T03:10:21;5.10;99.90
25963;DHT22;13760;52.588;13.406;2022-12-24T03:13:02;5.20;99.90
25963;DHT22;13760;52.588;13.406;2022-12-24T03:15:29;5.20;99.90
25963;DHT22;13760;52.588;13.406;2022-12-24T03:17:58;5.10;99.90
25963;DHT22;13760;52.588;13.406;2022-12-24T03:20:37;5.20;99.90
25963;DHT22;13760;52.588;13.406;2022-12-24T03:23:04;5.20;99.90
25963;DHT22;13760;52.588;13.406;2022-12-24T03:25:31;5.10;99.90
25963;DHT22;13760;52.588;13.406;2022-12-24T03:28:01;5.10;99.90
25963;DHT22;13760;52.588;13.406;2022-12-24T03:30:27;5.20;99.90
25963;DHT22;13760;52.588;13.406;2022-12-24T03:32:53;5.20;99.90
25963;DHT22;13760;52.588;13.406;2022-12-24T03:35:19;5.10;99.90
25963;DHT22;13760;52.588;13.406;2022-12-24T03:37:44;5.20;99.90
25963;DHT22;13760;52.588;13.406;2022-12-24T03:40:10;5.20;99.90
25963;DHT22;13760;52.588;13.406;2022-12-24T03:42:36;5.10;99.90
25963;DHT22;13760;52.588;13.406;2022-12-24T03:45:01;5.10;99.90
25963;DHT22;13760;52.588;13.406;2022-12-24T03:47:27;5.10;99.90
25963;DHT22;13760;52.588;13.406;2022-12-24T03:49:52;5.10;99.90
25963;DHT22;13760;52.588;13.406;2022-12-24T03:52:18;5.10;99.90
25963;DHT22;13760;52.588;13.406;2022-12-24T03:54:43;5.10;99.90
25963;DHT22;13760;52.588;13.406;2022-12-24T03:57:09;5.10;99.90
25963;DHT22;13760;52.588;13.406;2022-12-24T03:59:34;5.10;99.90
25963;DHT22;13760;52.588;13.406;2022-12-24T04:02:00;5.10;99.90
25963;DHT22;13760;52.588;13.406;2022-12-24T04:04:25;5.10;99.90
25963;DHT22;13760;52.588;13.406;2022-12-24T04:06:51;5.10;99.90
25963;DHT22;13760;52.588;13.406;2022-12-24T04:09:16;5.10;99.90
25963;DHT22;13760;52.588;13.406;2022-12-24T04:11:42;5.10;99.90
25963;DHT22;13760;52.588;13.406;2022-12-24T04:14:07;5.10;99.90
25963;DHT22;13760;52.588;13.406;2022-12-24T04:16:33;5.10;99.90
25963;DHT22;13760;52.588;13.406;2022-12-24T04:18:58;5.10;99.90
25963;DHT22;13760;52.588;13.406;2022-12-24T04:21:24;5.10;99.90
25963;DHT22;13760;52.588;13.406;2022-12-24T04:23:49;5.10;99.90
25963;DHT22;13760;52.588;13.406;2022-12-24T04:26:15;5.10;99.90
25963;DHT22;13760;52.588;13.406;2022-12-24T04:28:42;5.00;99.90
25963;DHT22;13760;52.588;13.406;2022-12-24T04:31:14;5.00;99.90
25963;DHT22;13760;52.588;13.406;2022-12-24T04:33:39;5.00;99.90
25963;DHT22;13760;52.588;13.406;2022-12-24T04:36:06;5.00;99.90
25963;DHT22;13760;52.588;13.406;2022-12-24T04:38:32;5.00;99.90
25963;DHT22;13760;52.588;13.406;2022-12-24T04:43:29;5.00;99.90
25963;DHT22;13760;52.588;13.406;2022-12-24T04:45:55;5.00;99.90
25963;DHT22;13760;52.588;13.406;2022-12-24T04:48:20;5.00;99.90
25963;DHT22;13760;52.588;13.406;2022-12-24T04:50:46;5.00;99.90
25963;DHT22;13760;52.588;13.406;2022-12-24T04:53:11;5.10;99.90
25963;DHT22;13760;52.588;13.406;2022-12-24T04:55:43;5.10;99.90
25963;DHT22;13760;52.588;13.406;2022-12-24T04:58:09;5.10;99.90
25963;DHT22;13760;52.588;13.406;2022-12-24T05:00:34;5.10;99.90
25963;DHT22;13760;52.588;13.406;2022-12-24T05:03:00;5.10;99.90
25963;DHT22;13760;52.588;13.406;2022-12-24T05:05:25;5.10;99.90
25963;DHT22;13760;52.588;13.406;2022-12-24T05:07:51;5.10;99.90
25963;DHT22;13760;52.588;13.406;2022-12-24T05:10:16;5.00;99.90
25963;DHT22;13760;52.588;13.406;2022-12-24T05:12:42;5.10;99.90
25963;DHT22;13760;52.588;13.406;2022-12-24T05:15:07;5.10;99.90
25963;DHT22;13760;52.588;13.406;2022-12-24T05:17:33;5.10;99.90
25963;DHT22;13760;52.588;13.406;2022-12-24T05:19:58;5.10;99.90
25963;DHT22;13760;52.588;13.406;2022-12-24T05:22:24;5.10;99.90
25963;DHT22;13760;52.588;13.406;2022-12-24T05:25:09;5.10;99.90
25963;DHT22;13760;52.588;13.406;2022-12-24T05:28:06;5.10;99.90
25963;DHT22;13760;52.588;13.406;2022-12-24T05:30:32;5.10;99.90
25963;DHT22;13760;52.588;13.406;2022-12-24T05:32:57;5.00;99.90
25963;DHT22;13760;52.588;13.406;2022-12-24T05:35:23;5.10;99.90
25963;DHT22;13760;52.588;13.406;2022-12-24T05:37:48;5.10;99.90
25963;DHT22;13760;52.588;13.406;2022-12-24T05:40:14;5.00;99.90
25963;DHT22;13760;52.588;13.406;2022-12-24T05:42:39;5.00;99.90
25963;DHT22;13760;52.588;13.406;2022-12-24T05:45:05;5.00;99.90
25963;DHT22;13760;52.588;13.406;2022-12-24T05:47:31;5.00;99.90
25963;DHT22;13760;52.588;13.406;2022-12-24T05:49:57;5.00;99.90
25963;DHT22;13760;52.588;13.406;2022-12-24T05:52:22;5.00;99.90
25963;DHT22;13760;52.588;13.406;2022-12-24T05:54:48;5.00;99.90
25963;DHT22;13760;52.588;13.406;2022-12-24T05:57:13;5.00;99.90
25963;DHT22;13760;52.588;13.406;2022-12-24T05:59:40;5.00;99.90
25963;DHT22;13760;52.588;13.406;2022-12-24T06:02:05;5.00;99.90
25963;DHT22;13760;52.588;13.406;2022-12-24T06:04:31;5.00;99.90
25963;DHT22;13760;52.588;13.406;2022-12-24T06:06:56;5.00;99.90
25963;DHT22;13760;52.588;13.406;2022-12-24T06:09:22;5.00;99.90
25963;DHT22;13760;52.588;13.406;2022-12-24T06:11:47;5.00;99.90
25963;DHT22;13760;52.588;13.406;2022-12-24T06:14:13;5.00;99.90
25963;DHT22;13760;52.588;13.406;2022-12-24T06:16:38;5.00;99.90
25963;DHT22;13760;52.588;13.406;2022-12-24T06:19:04;5.00;99.90
25963;DHT22;13760;52.588;13.406;2022-12-24T06:21:29;5.00;99.90
25963;DHT22;13760;52.588;13.406;2022-12-24T06:23:55;5.00;99.90
25963;DHT22;13760;52.588;13.406;2022-12-24T06:26:21;5.00;99.90
25963;DHT22;13760;52.588;13.406;2022-12-24T06:28:48;5.00;99.90
25963;DHT22;13760;52.588;13.406;2022-12-24T06:31:16;5.00;99.90
25963;DHT22;13760;52.588;13.406;2022-12-24T06:33:42;5.00;99.90
25963;DHT22;13760;52.588;13.406;2022-12-24T06:36:10;5.00;99.90
25963;DHT22;13760;52.588;13.406;2022-12-24T06:38:37;5.00;99.90
25963;DHT22;13760;52.588;13.406;2022-12-24T06:41:08;5.00;99.90
25963;DHT22;13760;52.588;13.406;2022-12-24T06:43:34;5.00;99.90
25963;DHT22;13760;52.588;13.406;2022-12-24T06:46:00;5.00;99.90
25963;DHT22;13760;52.588;13.406;2022-12-24T06:48:26;5.00;99.90
25963;DHT22;13760;52.588;13.406;2022-12-24T06:50:52;5.10;99.90
25963;DHT22;13760;52.588;13.406;2022-12-24T06:53:17;5.00;99.90
25963;DHT22;13760;52.588;13.406;2022-12-24T06:55:43;5.00;99.90
25963;DHT22;13760;52.588;13.406;2022-12-24T06:58:09;5.00;99.90
25963;DHT22;13760;52.588;13.406;2022-12-24T07:00:34;5.00;99.90
25963;DHT22;13760;52.588;13.406;2022-12-24T07:03:00;5.00;99.90
25963;DHT22;13760;52.588;13.406;2022-12-24T07:05:26;5.00;99.90
25963;DHT22;13760;52.588;13.406;2022-12-24T07:07:51;5.00;99.90
25963;DHT22;13760;52.588;13.406;2022-12-24T07:10:18;5.00;99.90
25963;DHT22;13760;52.588;13.406;2022-12-24T07:12:43;5.00;99.90
25963;DHT22;13760;52.588;13.406;2022-12-24T07:15:10;5.00;99.90
25963;DHT22;13760;52.588;13.406;2022-12-24T07:17:36;5.00;99.90
25963;DHT22;13760;52.588;13.406;2022-12-24T07:20:03;5.00;99.90
25963;DHT22;13760;52.588;13.406;2022-12-24T07:22:29;5.00;99.90
25963;DHT22;13760;52.588;13.406;2022-12-24T07:24:54;5.00;99.90
25963;DHT22;13760;52.588;13.406;2022-12-24T07:27:19;5.00;99.90
25963;DHT22;13760;52.588;13.406;2022-12-24T07:29:45;5.00;99.90
25963;DHT22;13760;52.588;13.406;2022-12-24T07:32:11;5.00;99.90
25963;DHT22;13760;52.588;13.406;2022-12-24T07:34:36;5.00;99.90
25963;DHT22;13760;52.588;13.406;2022-12-24T07:37:01;5.00;99.90
25963;DHT22;13760;52.588;13.406;2022-12-24T07:39:27;5.00;99.90
25963;DHT22;13760;52.588;13.406;2022-12-24T07:41:53;5.00;99.90
25963;DHT22;13760;52.588;13.406;2022-12-24T07:44:18;5.00;99.90
25963;DHT22;13760;52.588;13.406;2022-12-24T07:46:44;5.00;99.90
25963;DHT22;13760;52.588;13.406;2022-12-24T07:49:09;5.00;99.90
25963;DHT22;13760;52.588;13.406;2022-12-24T07:51:36;5.00;99.90
25963;DHT22;13760;52.588;13.406;2022-12-24T07:54:02;5.00;99.90
25963;DHT22;13760;52.588;13.406;2022-12-24T07:56:30;5.00;99.90
25963;DHT22;13760;52.588;13.406;2022-12-24T07:58:55;5.00;99.90
25963;DHT22;13760;52.588;13.406;2022-12-24T08:01:21;5.00;99.90
25963;DHT22;13760;52.588;13.406;2022-12-24T08:03:46;5.00;99.90
25963;DHT22;13760;52.588;13.406;2022-12-24T08:06:12;5.10;99.90
25963;DHT22;13760;52.588;13.406;2022-12-24T08:08:38;5.10;99.90
25963;DHT22;13760;52.588;13.406;2022-12-24T08:11:04;5.00;99.90
25963;DHT22;13760;52.588;13.406;2022-12-24T08:13:31;5.10;99.90
25963;DHT22;13760;52.588;13.406;2022-12-24T08:15:57;5.00;99.90
25963;DHT22;13760;52.588;13.406;2022-12-24T08:18:23;5.00;99.90
25963;DHT22;13760;52.588;13.406;2022-12-24T08:20:49;5.10;99.90
25963;DHT22;13760;52.588;13.406;2022-12-24T08:23:15;5.00;99.90
25963;DHT22;13760;52.588;13.406;2022-12-24T08:25:43;5.00;99.90
25963;DHT22;13760;52.588;13.406;2022-12-24T08:28:09;5.00;99.90
25963;DHT22;13760;52.588;13.406;2022-12-24T08:30:34;5.10;99.90
25963;DHT22;13760;52.588;13.406;2022-12-24T08:33:00;5.10;99.90
25963;DHT22;13760;52.588;13.406;2022-12-24T08:35:26;5.00;99.90
25963;DHT22;13760;52.588;13.406;2022-12-24T08:37:51;5.00;99.90
25963;DHT22;13760;52.588;13.406;2022-12-24T08:40:17;5.10;99.90
25963;DHT22;13760;52.588;13.406;2022-12-24T08:42:43;5.10;99.90
25963;DHT22;13760;52.588;13.406;2022-12-24T08:45:08;5.10;99.90
25963;DHT22;13760;52.588;13.406;2022-12-24T08:47:36;5.10;99.90
25963;DHT22;13760;52.588;13.406;2022-12-24T08:50:02;5.10;99.90
25963;DHT22;13760;52.588;13.406;2022-12-24T08:52:28;5.10;99.90
25963;DHT22;13760;52.588;13.406;2022-12-24T08:54:53;5.20;99.90
25963;DHT22;13760;52.588;13.406;2022-12-24T08:57:19;5.20;99.90
25963;DHT22;13760;52.588;13.406;2022-12-24T08:59:44;5.10;99.90
25963;DHT22;13760;52.588;13.406;2022-12-24T09:02:10;5.20;99.90
25963;DHT22;13760;52.588;13.406;2022-12-24T09:04:38;5.20;99.90
25963;DHT22;13760;52.588;13.406;2022-12-24T09:07:05;5.20;99.90
25963;DHT22;13760;52.588;13.406;2022-12-24T09:09:30;5.20;99.90
25963;DHT22;13760;52.588;13.406;2022-12-24T09:11:56;5.20;99.90
25963;DHT22;13760;52.588;13.406;2022-12-24T09:14:21;5.20;99.90
25963;DHT22;13760;52.588;13.406;2022-12-24T09:16:47;5.20;99.90
25963;DHT22;13760;52.588;13.406;2022-12-24T09:19:12;5.20;99.90
25963;DHT22;13760;52.588;13.406;2022-12-24T09:21:38;5.30;99.90
25963;DHT22;13760;52.588;13.406;2022-12-24T09:24:04;5.20;99.90
25963;DHT22;13760;52.588;13.406;2022-12-24T09:26:29;5.20;99.90
25963;DHT22;13760;52.588;13.406;2022-12-24T09:28:57;5.20;99.90
25963;DHT22;13760;52.588;13.406;2022-12-24T09:31:23;5.30;99.90
25963;DHT22;13760;52.588;13.406;2022-12-24T09:33:49;5.30;99.90
25963;DHT22;13760;52.588;13.406;2022-12-24T09:36:16;5.30;99.90
25963;DHT22;13760;52.588;13.406;2022-12-24T09:38:42;5.30;99.90
25963;DHT22;13760;52.588;13.406;2022-12-24T09:41:49;5.30;99.90
25963;DHT22;13760;52.588;13.406;2022-12-24T09:45:15;5.30;99.90
25963;DHT22;13760;52.588;13.406;2022-12-24T09:47:34;5.30;99.90
25963;DHT22;13760;52.588;13.406;2022-12-24T09:50:20;5.30;99.90
25963;DHT22;13760;52.588;13.406;2022-12-24T09:52:47;5.40;99.90
25963;DHT22;13760;52.588;13.406;2022-12-24T09:55:27;5.40;99.90
25963;DHT22;13760;52.588;13.406;2022-12-24T09:57:57;5.40;99.90
25963;DHT22;13760;52.588;13.406;2022-12-24T10:00:34;5.40;99.90
25963;DHT22;13760;52.588;13.406;2022-12-24T10:03:00;5.40;99.90
25963;DHT22;13760;52.588;13.406;2022-12-24T10:05:37;5.40;99.90
25963;DHT22;13760;52.588;13.406;2022-12-24T10:08:27;5.40;99.90
25963;DHT22;13760;52.588;13.406;2022-12-24T10:11:02;5.50;99.90
25963;DHT22;13760;52.588;13.406;2022-12-24T10:14:02;5.40;99.90
25963;DHT22;13760;52.588;13.406;2022-12-24T10:16:56;5.50;99.90
25963;DHT22;13760;52.588;13.406;2022-12-24T10:19:53;5.50;99.90
25963;DHT22;13760;52.588;13.406;2022-12-24T10:22:33;5.50;99.90
25963;DHT22;13760;52.588;13.406;2022-12-24T10:25:03;5.50;99.90
25963;DHT22;13760;52.588;13.406;2022-12-24T10:27:37;5.50;99.90
25963;DHT22;13760;52.588;13.406;2022-12-24T10:30:13;5.50;99.90
25963;DHT22;13760;52.588;13.406;2022-12-24T10:32:40;5.50;99.90
25963;DHT22;13760;52.588;13.406;2022-12-24T10:35:18;5.40;99.90
25963;DHT22;13760;52.588;13.406;2022-12-24T10:37:47;5.50;99.90
25963;DHT22;13760;52.588;13.406;2022-12-24T10:40:21;5.60;99.90
25963;DHT22;13760;52.588;13.406;2022-12-24T10:42:48;5.60;99.90
25963;DHT22;13760;52.588;13.406;2022-12-24T10:45:17;5.60;99.90
25963;DHT22;13760;52.588;13.406;2022-12-24T10:47:48;5.60;99.90
25963;DHT22;13760;52.588;13.406;2022-12-24T10:50:23;5.60;99.90
25963;DHT22;13760;52.588;13.406;2022-12-24T10:52:52;5.70;99.90
25963;DHT22;13760;52.588;13.406;2022-12-24T10:55:22;5.70;99.90
25963;DHT22;13760;52.588;13.406;2022-12-24T10:58:01;5.70;99.90
25963;DHT22;13760;52.588;13.406;2022-12-24T11:00:27;5.70;99.90
25963;DHT22;13760;52.588;13.406;2022-12-24T11:05:37;5.80;99.90
25963;DHT22;13760;52.588;13.406;2022-12-24T11:10:29;5.90;99.90
25963;DHT22;13760;52.588;13.406;2022-12-24T11:12:56;5.90;99.90
25963;DHT22;13760;52.588;13.406;2022-12-24T11:15:31;5.90;99.90
25963;DHT22;13760;52.588;13.406;2022-12-24T11:18:00;5.90;99.90
25963;DHT22;13760;52.588;13.406;2022-12-24T11:20:30;6.00;99.90
25963;DHT22;13760;52.588;13.406;2022-12-24T11:22:56;6.00;99.90
25963;DHT22;13760;52.588;13.406;2022-12-24T11:25:31;6.10;99.90
25963;DHT22;13760;52.588;13.406;2022-12-24T11:28:20;6.10;99.90
25963;DHT22;13760;52.588;13.406;2022-12-24T11:31:04;6.10;99.90
25963;DHT22;13760;52.588;13.406;2022-12-24T11:33:31;6.10;99.90
25963;DHT22;13760;52.588;13.406;2022-12-24T11:36:02;6.20;99.90
25963;DHT22;13760;52.588;13.406;2022-12-24T11:38:29;6.20;99.90
25963;DHT22;13760;52.588;13.406;2022-12-24T11:41:02;6.20;99.90
25963;DHT22;13760;52.588;13.406;2022-12-24T11:43:36;6.20;99.90
25963;DHT22;13760;52.588;13.406;2022-12-24T11:49:15;6.20;99.90
25963;DHT22;13760;52.588;13.406;2022-12-24T11:57:13;6.50;99.90
25963;DHT22;13760;52.588;13.406;2022-12-24T11:59:45;6.50;99.90
25963;DHT22;13760;52.588;13.406;2022-12-24T12:02:32;6.50;99.90
25963;DHT22;13760;52.588;13.406;2022-12-24T12:05:09;6.50;99.90
25963;DHT22;13760;52.588;13.406;2022-12-24T12:07:37;6.60;99.90
25963;DHT22;13760;52.588;13.406;2022-12-24T12:10:20;6.60;99.90
25963;DHT22;13760;52.588;13.406;2022-12-24T12:13:02;6.60;99.90
25963;DHT22;13760;52.588;13.406;2022-12-24T12:15:34;6.60;99.90
25963;DHT22;13760;52.588;13.406;2022-12-24T12:18:27;6.60;99.90
25963;DHT22;13760;52.588;13.406;2022-12-24T12:21:03;6.60;99.90
25963;DHT22;13760;52.588;13.406;2022-12-24T12:23:37;6.60;99.90
25963;DHT22;13760;52.588;13.406;2022-12-24T12:26:09;6.60;99.90
25963;DHT22;13760;52.588;13.406;2022-12-24T12:29:17;6.70;99.90
25963;DHT22;13760;52.588;13.406;2022-12-24T12:31:49;6.70;99.90
25963;DHT22;13760;52.588;13.406;2022-12-24T12:34:43;6.80;99.90
25963;DHT22;13760;52.588;13.406;2022-12-24T12:37:19;6.70;99.90
25963;DHT22;13760;52.588;13.406;2022-12-24T12:39:46;6.80;99.90
25963;DHT22;13760;52.588;13.406;2022-12-24T12:42:31;6.80;99.90
25963;DHT22;13760;52.588;13.406;2022-12-24T12:47:52;6.70;99.90
25963;DHT22;13760;52.588;13.406;2022-12-24T12:50:28;6.70;99.90
25963;DHT22;13760;52.588;13.406;2022-12-24T13:01:20;6.90;99.90
25963;DHT22;13760;52.588;13.406;2022-12-24T13:21:24;7.20;99.90
25963;DHT22;13760;52.588;13.406;2022-12-24T13:24:04;7.20;99.90
25963;DHT22;13760;52.588;13.406;2022-12-24T13:26:30;7.20;99.90
25963;DHT22;13760;52.588;13.406;2022-12-24T13:29:28;7.20;99.90
25963;DHT22;13760;52.588;13.406;2022-12-24T13:34:50;7.20;99.90
25963;DHT22;13760;52.588;13.406;2022-12-24T13:37:20;7.20;99.90
25963;DHT22;13760;52.588;13.406;2022-12-24T13:48:13;7.30;99.90
25963;DHT22;13760;52.588;13.406;2022-12-24T13:50:46;7.30;99.90
25963;DHT22;13760;52.588;13.406;2022-12-24T13:53:27;7.30;99.90
25963;DHT22;13760;52.588;13.406;2022-12-24T13:58:44;7.30;99.90
25963;DHT22;13760;52.588;13.406;2022-12-24T14:01:18;7.20;99.90
25963;DHT22;13760;52.588;13.406;2022-12-24T14:06:31;7.30;99.90
25963;DHT22;13760;52.588;13.406;2022-12-24T14:09:09;7.30;99.90
25963;DHT22;13760;52.588;13.406;2022-12-24T14:16:56;7.50;99.90
25963;DHT22;13760;52.588;13.406;2022-12-24T14:19:25;7.60;99.90
25963;DHT22;13760;52.588;13.406;2022-12-24T14:21:58;7.60;99.90
25963;DHT22;13760;52.588;13.406;2022-12-24T14:24:34;7.60;99.90
25963;DHT22;13760;52.588;13.406;2022-12-24T14:29:35;7.60;99.90
25963;DHT22;13760;52.588;13.406;2022-12-24T14:32:15;7.60;99.90
25963;DHT22;13760;52.588;13.406;2022-12-24T14:34:41;7.50;99.90
25963;DHT22;13760;52.588;13.406;2022-12-24T14:37:09;7.60;99.90
25963;DHT22;13760;52.588;13.406;2022-12-24T14:39:40;7.50;99.90
25963;DHT22;13760;52.588;13.406;2022-12-24T14:44:58;7.50;99.90
25963;DHT22;13760;52.588;13.406;2022-12-24T14:47:48;7.50;99.90
25963;DHT22;13760;52.588;13.406;2022-12-24T14:50:57;7.50;99.90
25963;DHT22;13760;52.588;13.406;2022-12-24T14:53:27;7.50;99.90
25963;DHT22;13760;52.588;13.406;2022-12-24T14:55:58;7.50;99.90
25963;DHT22;13760;52.588;13.406;2022-12-24T14:58:37;7.50;99.90
25963;DHT22;13760;52.588;13.406;2022-12-24T15:06:27;7.50;99.90
25963;DHT22;13760;52.588;13.406;2022-12-24T15:08:54;7.50;99.90
25963;DHT22;13760;52.588;13.406;2022-12-24T15:11:21;7.40;99.90
25963;DHT22;13760;52.588;13.406;2022-12-24T15:13:49;7.30;99.90
25963;DHT22;13760;52.588;13.406;2022-12-24T15:16:21;7.30;99.90
25963;DHT22;13760;52.588;13.406;2022-12-24T15:18:51;7.20;99.90
25963;DHT22;13760;52.588;13.406;2022-12-24T15:21:38;7.20;99.90
25963;DHT22;13760;52.588;13.406;2022-12-24T15:24:31;7.10;99.90
25963;DHT22;13760;52.588;13.406;2022-12-24T15:26:58;7.10;99.90
25963;DHT22;13760;52.588;13.406;2022-12-24T15:29:32;7.10;99.90
25963;DHT22;13760;52.588;13.406;2022-12-24T15:32:03;7.10;99.90
25963;DHT22;13760;52.588;13.406;2022-12-24T15:34:38;7.10;99.90
25963;DHT22;13760;52.588;13.406;2022-12-24T15:37:09;7.10;99.90
25963;DHT22;13760;52.588;13.406;2022-12-24T15:39:37;7.00;99.90
25963;DHT22;13760;52.588;13.406;2022-12-24T15:42:05;7.00;99.90
25963;DHT22;13760;52.588;13.406;2022-12-24T15:47:41;6.90;99.90
25963;DHT22;13760;52.588;13.406;2022-12-24T15:52:54;6.70;99.90
25963;DHT22;13760;52.588;13.406;2022-12-24T15:55:35;6.70;99.90
25963;DHT22;13760;52.588;13.406;2022-12-24T15:58:16;6.60;99.90
25963;DHT22;13760;52.588;13.406;2022-12-24T16:00:42;6.60;99.90
25963;DHT22;13760;52.588;13.406;2022-12-24T16:03:17;6.60;99.90
25963;DHT22;13760;52.588;13.406;2022-12-24T16:05:43;6.60;99.90
25963;DHT22;13760;52.588;13.406;2022-12-24T16:10:50;6.60;99.90
25963;DHT22;13760;52.588;13.406;2022-12-24T16:13:27;6.60;99.90
25963;DHT22;13760;52.588;13.406;2022-12-24T16:16:00;6.60;99.90
25963;DHT22;13760;52.588;13.406;2022-12-24T16:19:14;6.50;99.90
25963;DHT22;13760;52.588;13.406;2022-12-24T16:21:29;6.50;99.90
25963;DHT22;13760;52.588;13.406;2022-12-24T16:23:57;6.60;99.90
25963;DHT22;13760;52.588;13.406;2022-12-24T16:26:28;6.50;99.90
25963;DHT22;13760;52.588;13.406;2022-12-24T16:28:54;6.60;99.90
25963;DHT22;13760;52.588;13.406;2022-12-24T16:31:50;6.50;99.90
25963;DHT22;13760;52.588;13.406;2022-12-24T16:34:16;6.40;99.90
25963;DHT22;13760;52.588;13.406;2022-12-24T16:36:44;6.40;99.90
25963;DHT22;13760;52.588;13.406;2022-12-24T16:39:17;6.30;99.90
25963;DHT22;13760;52.588;13.406;2022-12-24T16:41:53;6.40;99.90
25963;DHT22;13760;52.588;13.406;2022-12-24T16:44:42;6.30;99.90
25963;DHT22;13760;52.588;13.406;2022-12-24T16:47:12;6.20;99.90
25963;DHT22;13760;52.588;13.406;2022-12-24T16:49:38;6.20;99.90
25963;DHT22;13760;52.588;13.406;2022-12-24T16:52:15;6.20;99.90
25963;DHT22;13760;52.588;13.406;2022-12-24T16:54:41;6.20;99.90
25963;DHT22;13760;52.588;13.406;2022-12-24T16:57:11;6.20;99.90
25963;DHT22;13760;52.588;13.406;2022-12-24T16:59:36;6.10;99.90
25963;DHT22;13760;52.588;13.406;2022-12-24T17:02:03;6.10;99.90
25963;DHT22;13760;52.588;13.406;2022-12-24T17:04:31;6.10;99.90
25963;DHT22;13760;52.588;13.406;2022-12-24T17:06:56;6.00;99.90
25963;DHT22;13760;52.588;13.406;2022-12-24T17:09:22;6.00;99.90
25963;DHT22;13760;52.588;13.406;2022-12-24T17:11:48;5.90;99.90
25963;DHT22;13760;52.588;13.406;2022-12-24T17:14:13;5.90;99.90
25963;DHT22;13760;52.588;13.406;2022-12-24T17:16:39;5.80;99.90
25963;DHT22;13760;52.588;13.406;2022-12-24T17:19:04;5.80;99.90
25963;DHT22;13760;52.588;13.406;2022-12-24T17:21:30;5.70;99.90
25963;DHT22;13760;52.588;13.406;2022-12-24T17:23:55;5.70;99.90
25963;DHT22;13760;52.588;13.406;2022-12-24T17:26:21;5.60;99.90
25963;DHT22;13760;52.588;13.406;2022-12-24T17:28:46;5.60;99.90
25963;DHT22;13760;52.588;13.406;2022-12-24T17:31:15;5.60;99.90